Time;durP1;ratioP1;P1;durP2;ratioP2;P2;SDS_P1;SDS_P2;PMS_P1;PMS_P2;Temp;Humidity;BMP_temperature;BMP_pressure;BME280_temperature;BME280_humidity;BME280_pressure;Samples;Min_cycle;Max_cycle;Signal;HPM_P1;HPM_P2
2022/11/06 00:00:43;;;;;;;36.47;35.08;;;11.80;94.70;;;;;;4840930;29;20126;-79
2022/11/06 00:03:10;;;;;;;34.90;33.60;;;11.80;94.70;;;;;;4856260;29;20108;-79
2022/11/06 00:08:33;;;;;;;35.95;34.58;;;11.80;94.70;;;;;;4857590;29;20370;-79
2022/11/06 00:10:59;;;;;;;35.90;34.50;;;11.80;94.70;;;;;;4857775;29;20364;-79
2022/11/06 00:13:25;;;;;;;37.03;35.63;;;11.80;94.70;;;;;;4857135;29;20030;-79
2022/11/06 00:15:51;;;;;;;34.80;33.50;;;11.80;94.80;;;;;;4855975;29;20400;-79
2022/11/06 00:18:17;;;;;;;38.15;36.75;;;11.80;94.80;;;;;;4840703;29;20037;-77
2022/11/06 00:20:43;;;;;;;33.35;32.08;;;11.90;94.90;;;;;;4857263;29;20539;-77
2022/11/06 00:23:09;;;;;;;33.85;32.55;;;12.00;94.90;;;;;;4840475;29;20037;-77
2022/11/06 00:25:39;;;;;;;34.75;33.45;;;12.10;94.90;;;;;;4856897;29;20363;-77
2022/11/06 00:28:04;;;;;;;36.35;34.95;;;12.20;94.80;;;;;;4855554;29;20048;-77
2022/11/06 00:30:30;;;;;;;37.60;36.20;;;12.10;94.70;;;;;;4840153;29;20026;-77
2022/11/06 00:32:57;;;;;;;37.65;36.25;;;12.10;94.70;;;;;;4840335;29;20038;-78
2022/11/06 00:35:22;;;;;;;38.30;36.90;;;12.10;94.70;;;;;;4855607;29;20128;-78
2022/11/06 00:37:48;;;;;;;37.53;36.13;;;12.00;94.70;;;;;;4856875;29;20193;-78
2022/11/06 00:40:14;;;;;;;37.50;36.10;;;12.00;94.80;;;;;;4838864;29;20045;-78
2022/11/06 00:42:39;;;;;;;39.00;37.50;;;12.00;94.80;;;;;;4856520;29;20518;-78
2022/11/06 00:45:06;;;;;;;37.58;36.17;;;12.00;94.80;;;;;;4840075;29;20078;-79
2022/11/06 00:47:31;;;;;;;;;;;11.90;94.80;;;;;;4840325;29;20045;-80
2022/11/06 00:49:57;;;;;;;38.67;37.17;;;11.90;94.80;;;;;;4856569;29;20247;-79
2022/11/06 00:52:23;;;;;;;39.28;37.78;;;11.90;94.80;;;;;;4856622;29;20041;-79
2022/11/06 00:54:48;;;;;;;37.70;36.30;;;11.90;94.80;;;;;;4839865;29;20069;-80
2022/11/06 00:57:14;;;;;;;40.40;38.90;;;12.00;94.80;;;;;;4856478;29;20112;-80
2022/11/06 00:59:40;;;;;;;38.17;36.78;;;12.00;94.80;;;;;;4841552;29;20064;-79
2022/11/06 01:02:05;;;;;;;38.63;37.15;;;12.00;94.80;;;;;;4855529;29;20041;-79
2022/11/06 01:04:31;;;;;;;38.65;37.15;;;12.00;94.80;;;;;;4839539;29;20042;-80
2022/11/06 01:06:57;;;;;;;39.58;38.08;;;12.10;94.70;;;;;;4856068;29;20061;-80
2022/11/06 01:09:26;;;;;;;40.00;38.50;;;12.10;94.70;;;;;;4856454;29;20509;-80
2022/11/06 01:11:55;;;;;;;40.45;38.95;;;12.00;94.60;;;;;;4839640;29;20517;-79
2022/11/06 01:14:21;;;;;;;40.55;39.05;;;12.00;94.60;;;;;;4856053;29;20399;-77
2022/11/06 01:16:47;;;;;;;41.95;40.35;;;11.90;94.60;;;;;;4839454;29;20105;-77
2022/11/06 01:19:15;;;;;;;43.80;42.20;;;11.90;94.70;;;;;;4839537;29;20083;-77
2022/11/06 01:21:44;;;;;;;43.90;42.22;;;11.90;94.70;;;;;;4854877;29;20057;-76
2022/11/06 01:24:13;;;;;;;39.88;38.38;;;11.80;94.70;;;;;;4856134;29;20037;-77
2022/11/06 01:26:39;;;;;;;39.78;38.28;;;11.80;95.00;;;;;;4839395;29;20021;-78
2022/11/06 01:29:09;;;;;;;39.03;37.53;;;11.80;94.80;;;;;;4854674;29;20037;-78
2022/11/06 01:31:35;;;;;;;39.20;37.70;;;11.80;94.80;;;;;;4839335;29;20491;-78
2022/11/06 01:34:02;;;;;;;39.08;37.58;;;11.80;94.80;;;;;;4855874;29;20116;-76
2022/11/06 01:36:28;;;;;;;39.25;37.75;;;11.80;94.80;;;;;;4854642;29;20033;-77
2022/11/06 01:38:58;;;;;;;36.90;35.50;;;11.80;94.80;;;;;;4855831;29;20124;-77
2022/11/06 01:41:28;;;;;;;36.53;35.13;;;11.80;94.80;;;;;;4854726;29;20440;-78
2022/11/06 01:44:00;;;;;;;35.38;34.05;;;11.80;94.90;;;;;;4839217;29;20145;-78
2022/11/06 01:46:28;;;;;;;35.30;34.00;;;11.80;94.90;;;;;;4839276;29;20457;-78
2022/11/06 01:48:57;;;;;;;35.25;33.95;;;11.90;94.80;;;;;;4839134;29;20045;-78
2022/11/06 01:51:25;;;;;;;35.00;33.70;;;11.90;94.80;;;;;;4855515;29;20032;-78
2022/11/06 01:53:52;;;;;;;35.78;34.47;;;12.00;94.80;;;;;;4838899;29;20398;-78
2022/11/06 01:56:19;;;;;;;33.30;32.00;;;12.00;94.80;;;;;;4855482;29;20093;-78
2022/11/06 01:58:48;;;;;;;35.83;34.47;;;12.00;94.80;;;;;;4855483;29;20133;-77
2022/11/06 02:01:14;;;;;;;34.63;33.33;;;12.10;94.80;;;;;;4855436;29;20059;-77
2022/11/06 02:03:47;;;;;;;35.65;34.35;;;12.10;94.80;;;;;;4855721;29;20118;-77
2022/11/06 02:06:13;;;;;;;33.03;31.75;;;12.20;94.80;;;;;;4855101;29;20291;-77
2022/11/06 02:08:39;;;;;;;34.70;33.40;;;12.20;94.80;;;;;;4839346;29;20067;-78
2022/11/06 02:11:05;;;;;;;32.63;31.40;;;12.20;94.90;;;;;;4855582;29;20391;-77
2022/11/06 02:14:01;;;;;;;35.10;33.80;;;12.40;94.90;;;;;;4838712;29;20037;-76
2022/11/06 02:16:37;;;;;;;34.17;32.88;;;12.40;94.90;;;;;;4838786;29;20033;-76
2022/11/06 02:19:18;;;;;;;34.60;33.30;;;12.40;94.80;;;;;;4838797;29;20160;-78
2022/11/06 02:22:05;;;;;;;36.33;34.92;;;12.50;94.80;;;;;;4854026;29;20506;-77
2022/11/06 02:24:34;;;;;;;41.38;39.83;;;12.60;94.80;;;;;;4838517;29;20038;-78
2022/11/06 02:27:06;;;;;;;43.63;42.03;;;12.50;94.70;;;;;;4855006;29;20037;-77
2022/11/06 02:29:50;;;;;;;48.13;46.33;;;12.50;94.70;;;;;;4838365;29;20034;-78
2022/11/06 02:32:22;;;;;;;51.00;49.10;;;12.50;94.60;;;;;;4838672;29;20345;-78
2022/11/06 02:34:51;;;;;;;53.75;51.75;;;12.40;94.60;;;;;;4854983;29;20026;-78
2022/11/06 02:37:24;;;;;;;55.63;53.53;;;12.40;94.60;;;;;;4855334;29;20033;-78
2022/11/06 02:39:51;;;;;;;56.33;54.22;;;12.30;94.60;;;;;;4855690;29;20041;-78
2022/11/06 02:42:19;;;;;;;53.33;51.33;;;12.30;94.70;;;;;;4838537;29;20029;-79
2022/11/06 02:44:49;;;;;;;54.65;52.55;;;12.20;94.70;;;;;;4853785;29;20101;-79
2022/11/06 02:47:18;;;;;;;52.97;50.97;;;12.20;94.70;;;;;;4838402;29;20105;-79
2022/11/06 02:50:05;;;;;;;50.58;48.67;;;12.20;94.70;;;;;;4838444;29;20451;-79
2022/11/06 02:52:39;;;;;;;53.10;51.10;;;12.20;94.70;;;;;;4838246;29;20116;-79
2022/11/06 02:55:13;;;;;;;51.25;49.35;;;12.20;94.70;;;;;;4854993;29;20502;-79
2022/11/06 02:57:44;;;;;;;51.40;49.50;;;12.30;94.80;;;;;;4855121;29;20113;-79
2022/11/06 03:00:12;;;;;;;53.15;51.15;;;12.30;94.80;;;;;;4854990;29;20479;-79
2022/11/06 03:02:44;;;;;;;52.97;50.97;;;12.30;94.80;;;;;;4839233;29;20121;-79
2022/11/06 03:05:21;;;;;;;54.70;52.60;;;12.30;94.80;;;;;;4858934;29;20053;-79
2022/11/06 03:08:10;;;;;;;54.00;52.00;;;12.30;94.80;;;;;;4841624;29;20049;-79
2022/11/06 03:10:43;;;;;;;50.25;48.35;;;12.30;94.80;;;;;;4841753;29;20026;-78
2022/11/06 03:13:41;;;;;;;52.75;50.75;;;12.40;94.90;;;;;;4841539;29;20060;-78
2022/11/06 03:16:13;;;;;;;54.60;52.50;;;12.50;94.90;;;;;;4858336;29;20064;-78
2022/11/06 03:18:49;;;;;;;55.47;53.38;;;12.50;94.80;;;;;;4858221;29;20045;-78
2022/11/06 03:21:47;;;;;;;60.10;57.80;;;12.50;94.80;;;;;;4858220;29;20034;-78
2022/11/06 03:24:23;;;;;;;59.05;56.85;;;12.50;94.80;;;;;;4857318;29;20506;-78
2022/11/06 03:26:52;;;;;;;58.67;56.47;;;12.50;94.80;;;;;;4858101;29;20025;-78
2022/11/06 03:29:52;;;;;;;61.15;58.85;;;12.40;94.80;;;;;;4841276;29;20120;-78
2022/11/06 03:32:29;;;;;;;60.03;57.72;;;12.40;94.80;;;;;;4838512;29;20039;-78
2022/11/06 03:34:56;;;;;;;60.40;58.10;;;12.40;94.80;;;;;;4858004;29;20032;-77
2022/11/06 03:37:29;;;;;;;61.33;59.03;;;12.40;94.90;;;;;;4858002;29;20040;-77
2022/11/06 03:39:58;;;;;;;61.70;59.35;;;12.30;94.90;;;;;;4858096;29;20093;-77
2022/11/06 03:42:29;;;;;;;61.42;59.13;;;12.30;94.90;;;;;;4857735;29;20036;-77
2022/11/06 03:44:59;;;;;;;61.35;59.00;;;12.30;94.90;;;;;;4857664;29;20022;-77
2022/11/06 03:47:40;;;;;;;59.25;56.95;;;12.40;95.00;;;;;;4857841;29;20033;-76
2022/11/06 03:50:25;;;;;;;61.22;58.88;;;12.40;95.00;;;;;;4841249;29;20058;-76
2022/11/06 03:52:59;;;;;;;62.47;60.08;;;12.40;94.90;;;;;;4841019;29;20034;-76
2022/11/06 03:55:30;;;;;;;60.28;57.97;;;12.40;94.90;;;;;;4857747;29;20054;-76
2022/11/06 03:58:00;;;;;;;62.50;60.10;;;12.40;94.90;;;;;;4841211;29;20045;-76
2022/11/06 04:00:26;;;;;;;61.35;59.03;;;12.40;94.90;;;;;;4857618;29;20068;-76
2022/11/06 04:03:04;;;;;;;61.83;59.42;;;12.40;95.00;;;;;;4857602;29;20068;-76
2022/11/06 04:05:37;;;;;;;61.42;59.05;;;12.30;94.90;;;;;;4857201;29;20047;-76
2022/11/06 04:13:57;;;;;;;61.70;59.30;;;12.30;94.90;;;;;;4859657;29;20382;-78
2022/11/06 04:16:25;;;;;;;63.13;60.72;;;12.20;94.90;;;;;;4857597;29;20025;-78
2022/11/06 04:18:51;;;;;;;64.30;61.80;;;12.20;94.90;;;;;;4840736;29;20037;-76
2022/11/06 04:21:27;;;;;;;63.05;60.65;;;12.20;94.90;;;;;;4856130;29;20034;-76
2022/11/06 04:27:02;;;;;;;58.47;56.28;;;12.10;94.90;;;;;;4857089;29;20081;-75
2022/11/06 04:29:42;;;;;;;60.65;58.35;;;12.10;94.90;;;;;;4857218;29;20030;-76
2022/11/06 04:32:40;;;;;;;60.05;57.75;;;12.20;95.00;;;;;;4840335;29;20116;-76
2022/11/06 04:35:08;;;;;;;;;;;12.20;95.00;;;;;;4840820;29;20026;-76
2022/11/06 04:37:53;;;;;;;59.80;57.53;;;12.30;94.90;;;;;;4856969;29;20380;-76
2022/11/06 04:40:42;;;;;;;60.08;57.78;;;12.30;94.90;;;;;;4856851;29;20395;-76
2022/11/06 04:43:16;;;;;;;62.88;60.47;;;12.30;94.80;;;;;;4856693;29;20029;-76
2022/11/06 04:45:47;;;;;;;63.70;61.30;;;12.30;94.70;;;;;;4856938;29;20104;-76
2022/11/06 04:48:13;;;;;;;62.70;60.30;;;12.20;94.70;;;;;;4856925;29;20482;-76
2022/11/06 04:50:46;;;;;;;61.30;59.00;;;12.10;94.70;;;;;;4855725;29;20041;-76
2022/11/06 04:53:12;;;;;;;63.65;61.25;;;12.00;94.80;;;;;;4840082;29;20089;-76
2022/11/06 04:55:53;;;;;;;60.92;58.63;;;12.00;94.80;;;;;;4839918;29;20034;-76
2022/11/06 04:58:19;;;;;;;60.75;58.45;;;11.90;94.80;;;;;;4839769;29;20033;-76
2022/11/06 05:00:47;;;;;;;62.28;59.92;;;11.80;94.80;;;;;;4856353;29;20030;-76
2022/11/06 05:03:14;;;;;;;65.35;62.85;;;11.80;94.90;;;;;;4856334;29;20033;-77
2022/11/06 05:05:40;;;;;;;61.83;59.50;;;11.80;94.90;;;;;;4856231;29;20041;-77
2022/11/06 05:08:10;;;;;;;60.17;57.88;;;11.70;94.90;;;;;;4854875;29;20037;-77
2022/11/06 05:10:36;;;;;;;64.80;62.33;;;11.70;94.90;;;;;;4856181;29;20033;-77
2022/11/06 05:13:02;;;;;;;59.50;57.20;;;11.70;94.90;;;;;;4839576;29;20056;-77
2022/11/06 05:15:27;;;;;;;59.15;56.92;;;11.70;95.00;;;;;;4839397;29;20098;-77
2022/11/06 05:17:53;;;;;;;60.17;57.88;;;11.70;95.00;;;;;;4839503;29;20394;-77
2022/11/06 05:20:19;;;;;;;59.30;57.00;;;11.70;95.00;;;;;;4855046;29;20041;-77
2022/11/06 05:22:56;;;;;;;59.72;57.42;;;11.70;94.90;;;;;;4839597;29;20041;-77
2022/11/06 05:25:30;;;;;;;60.17;57.88;;;11.60;94.90;;;;;;4854458;29;20037;-77
2022/11/06 05:27:57;;;;;;;59.80;57.50;;;11.60;94.90;;;;;;4854983;29;20041;-77
2022/11/06 05:30:24;;;;;;;61.47;59.17;;;11.60;94.90;;;;;;4839219;29;20022;-77
2022/11/06 05:32:50;;;;;;;61.55;59.25;;;11.60;94.90;;;;;;4839267;29;20085;-77
2022/11/06 05:35:16;;;;;;;;;;;11.60;94.90;;;;;;4839714;29;20220;-77
2022/11/06 05:37:42;;;;;;;60.65;58.35;;;11.60;94.90;;;;;;4855870;29;20010;-77
2022/11/06 05:40:08;;;;;;;60.92;58.63;;;11.50;94.90;;;;;;4856125;29;20042;-77
2022/11/06 05:42:36;;;;;;;60.05;57.75;;;11.60;94.90;;;;;;4854504;29;20033;-77
2022/11/06 05:45:02;;;;;;;62.67;60.28;;;11.50;94.90;;;;;;4839151;29;20061;-77
2022/11/06 05:47:28;;;;;;;59.05;56.85;;;11.50;94.80;;;;;;4854397;29;20086;-77
2022/11/06 05:49:54;;;;;;;59.72;57.42;;;11.50;94.80;;;;;;4854644;29;20081;-77
2022/11/06 05:52:19;;;;;;;60.85;58.55;;;11.50;94.90;;;;;;4854640;29;20034;-77
2022/11/06 05:54:45;;;;;;;59.17;56.97;;;11.40;94.90;;;;;;4854248;29;20509;-77
2022/11/06 05:57:11;;;;;;;61.55;59.25;;;11.40;94.90;;;;;;4838971;29;20510;-78
2022/11/06 05:59:37;;;;;;;62.10;59.75;;;11.40;94.90;;;;;;4838881;29;20044;-77
2022/11/06 06:02:03;;;;;;;62.63;60.22;;;11.40;94.90;;;;;;4839206;29;20044;-77
2022/11/06 06:04:29;;;;;;;60.78;58.47;;;11.40;94.90;;;;;;4854255;29;20204;-77
2022/11/06 06:06:55;;;;;;;60.97;58.67;;;11.40;94.90;;;;;;4855385;29;20136;-77
2022/11/06 06:09:20;;;;;;;60.90;58.60;;;11.40;94.90;;;;;;4838852;29;20045;-77
2022/11/06 06:11:50;;;;;;;57.42;55.22;;;11.40;94.90;;;;;;4854274;29;20068;-77
2022/11/06 06:14:16;;;;;;;57.35;55.15;;;11.40;94.90;;;;;;4854159;29;20037;-77
2022/11/06 06:16:42;;;;;;;58.55;56.35;;;11.40;94.90;;;;;;4855462;29;20049;-77
2022/11/06 06:19:08;;;;;;;58.67;56.47;;;11.40;94.90;;;;;;4838676;29;20491;-77
2022/11/06 06:21:35;;;;;;;58.25;56.05;;;11.40;94.90;;;;;;4855267;29;20065;-77
2022/11/06 06:24:01;;;;;;;59.28;57.03;;;11.40;94.90;;;;;;4838562;29;20093;-77
2022/11/06 06:26:27;;;;;;;58.20;56.00;;;11.40;94.90;;;;;;4855376;29;20456;-77
2022/11/06 06:28:53;;;;;;;57.83;55.63;;;11.40;94.90;;;;;;4838493;29;20059;-78
2022/11/06 06:31:18;;;;;;;56.55;54.42;;;11.40;94.90;;;;;;4838430;29;20040;-78
2022/11/06 06:33:44;;;;;;;55.45;53.35;;;11.40;94.90;;;;;;4853789;29;20038;-78
2022/11/06 06:36:10;;;;;;;54.38;52.30;;;11.40;94.90;;;;;;4839132;29;20253;-78
2022/11/06 06:38:36;;;;;;;54.00;52.00;;;11.40;94.90;;;;;;4858933;29;20196;-78
2022/11/06 06:41:03;;;;;;;53.08;51.08;;;11.40;94.90;;;;;;4842342;29;20044;-78
2022/11/06 06:43:29;;;;;;;52.53;50.53;;;11.40;94.90;;;;;;4842090;29;20510;-78
2022/11/06 06:46:03;;;;;;;52.55;50.55;;;11.40;94.90;;;;;;4858820;29;20121;-78
2022/11/06 06:48:29;;;;;;;51.42;49.50;;;11.40;94.90;;;;;;4842077;29;20038;-78
2022/11/06 06:51:02;;;;;;;51.45;49.55;;;11.40;94.90;;;;;;4857553;29;20085;-78
2022/11/06 06:53:28;;;;;;;52.05;50.10;;;11.40;94.90;;;;;;4858655;29;20044;-77
2022/11/06 06:55:54;;;;;;;;;;;11.30;94.90;;;;;;4859205;29;20025;-77
2022/11/06 06:58:20;;;;;;;51.75;49.85;;;11.30;94.90;;;;;;4858636;29;20253;-77
2022/11/06 07:00:46;;;;;;;53.05;51.05;;;11.30;94.90;;;;;;4857368;29;20053;-77
2022/11/06 07:03:12;;;;;;;56.40;54.30;;;11.20;94.80;;;;;;4841768;29;20132;-77
2022/11/06 07:05:38;;;;;;;53.53;51.53;;;11.20;94.80;;;;;;4841910;29;20033;-77
2022/11/06 07:08:04;;;;;;;56.08;53.97;;;11.20;95.10;;;;;;4841770;29;20045;-77
2022/11/06 07:10:30;;;;;;;54.95;52.85;;;11.10;94.80;;;;;;4858453;29;20196;-77
2022/11/06 07:13:03;;;;;;;56.55;54.45;;;11.10;94.80;;;;;;4858153;29;20478;-77
2022/11/06 07:15:28;;;;;;;56.72;54.63;;;11.00;94.80;;;;;;4841679;29;20052;-77
2022/11/06 07:17:54;;;;;;;55.90;53.80;;;11.00;94.80;;;;;;4857431;29;20029;-78
2022/11/06 07:20:20;;;;;;;56.75;54.35;;;11.00;94.90;;;;;;4857150;29;20156;-77
2022/11/06 07:22:45;;;;;;;58.05;55.85;;;11.00;94.90;;;;;;4841359;29;20033;-77
2022/11/06 07:25:11;;;;;;;58.90;56.70;;;10.90;94.90;;;;;;4841463;29;20037;-77
2022/11/06 07:27:37;;;;;;;57.35;55.15;;;10.90;94.90;;;;;;4841509;29;20042;-77
2022/11/06 07:30:03;;;;;;;59.20;56.92;;;10.90;94.90;;;;;;4841357;29;20149;-75
2022/11/06 07:32:29;;;;;;;;;;;10.90;94.90;;;;;;4857238;29;20057;-75
2022/11/06 07:34:54;;;;;;;58.13;55.92;;;10.90;94.90;;;;;;4826160;29;19912;-76
2022/11/06 07:37:20;;;;;;;61.15;58.85;;;10.80;94.80;;;;;;4857133;29;20064;-76
2022/11/06 07:39:46;;;;;;;60.53;58.22;;;10.80;94.80;;;;;;4857088;29;20491;-75
2022/11/06 07:42:12;;;;;;;59.47;57.17;;;10.80;94.80;;;;;;4858056;29;20037;-76
2022/11/06 07:44:37;;;;;;;57.90;55.70;;;10.80;94.90;;;;;;4857780;29;20114;-76
2022/11/06 07:47:03;;;;;;;59.00;56.80;;;10.80;94.90;;;;;;4841161;29;20383;-76
2022/11/06 07:49:29;;;;;;;59.35;57.15;;;10.80;94.90;;;;;;4857186;29;20128;-76
2022/11/06 07:51:55;;;;;;;58.42;56.20;;;10.80;94.90;;;;;;4857911;29;20463;-76
2022/11/06 07:54:21;;;;;;;;;;;10.80;94.90;;;;;;4841475;29;20041;-76
2022/11/06 07:56:46;;;;;;;57.72;55.53;;;10.80;94.90;;;;;;4857541;29;20365;-75
2022/11/06 07:59:12;;;;;;;54.97;52.88;;;10.80;94.90;;;;;;4856278;29;20037;-75
2022/11/06 08:01:38;;;;;;;52.95;50.95;;;10.80;94.90;;;;;;4857328;29;20052;-75
2022/11/06 08:04:03;;;;;;;51.65;49.70;;;10.80;94.90;;;;;;4857440;29;20090;-76
2022/11/06 08:06:29;;;;;;;53.25;51.25;;;10.80;95.00;;;;;;4856167;29;20499;-75
2022/11/06 08:08:55;;;;;;;49.40;47.50;;;10.90;95.00;;;;;;4857209;29;20041;-76
2022/11/06 08:11:20;;;;;;;46.63;44.83;;;11.00;95.00;;;;;;4857343;29;20042;-75
2022/11/06 08:13:46;;;;;;;45.47;43.78;;;11.00;95.00;;;;;;4857373;29;20034;-75
2022/11/06 08:16:13;;;;;;;44.80;43.10;;;11.10;95.10;;;;;;4856248;29;20030;-76
2022/11/06 08:18:39;;;;;;;44.58;42.88;;;11.10;95.00;;;;;;4857257;29;20041;-75
2022/11/06 08:21:06;;;;;;;;;;;11.20;95.00;;;;;;4856491;29;20044;-75
2022/11/06 08:23:32;;;;;;;43.13;41.53;;;11.30;95.10;;;;;;4857042;29;19976;-75
2022/11/06 08:26:02;;;;;;;;;;;11.30;95.00;;;;;;4840880;29;20435;-75
2022/11/06 08:28:28;;;;;;;41.97;40.38;;;11.40;95.00;;;;;;4857078;29;19919;-75
2022/11/06 08:30:54;;;;;;;;;;;11.40;94.90;;;;;;4857372;29;20026;-75
2022/11/06 08:33:21;;;;;;;39.67;38.17;;;11.40;95.00;;;;;;4856953;29;19914;-76
2022/11/06 08:35:47;;;;;;;36.63;35.22;;;11.50;95.00;;;;;;4855883;29;20037;-75
2022/11/06 08:38:13;;;;;;;39.22;37.72;;;11.70;95.10;;;;;;4856187;29;20387;-76
2022/11/06 08:40:39;;;;;;;;;;;11.80;95.10;;;;;;4857668;29;20067;-75
2022/11/06 08:43:07;;;;;;;34.83;33.53;;;11.90;95.10;;;;;;4856726;29;19983;-75
2022/11/06 08:45:42;;;;;;;32.65;31.45;;;12.00;95.00;;;;;;4855205;29;20422;-77
2022/11/06 08:48:08;;;;;;;31.92;30.73;;;12.10;95.10;;;;;;4839954;29;20124;-77
2022/11/06 08:50:38;;;;;;;28.40;27.30;;;12.20;95.10;;;;;;4855140;29;20032;-78
2022/11/06 08:53:05;;;;;;;32.40;31.20;;;12.40;95.20;;;;;;4856645;29;20451;-77
2022/11/06 08:55:33;;;;;;;26.65;25.65;;;12.40;95.20;;;;;;4856518;29;20036;-77
2022/11/06 08:57:59;;;;;;;19.73;18.92;;;12.60;95.30;;;;;;4856518;29;20033;-77
2022/11/06 09:00:28;;;;;;;23.50;22.60;;;12.90;95.60;;;;;;4855678;29;20036;-75
2022/11/06 09:02:59;;;;;;;23.42;22.52;;;13.10;95.50;;;;;;4841899;29;20530;-76
2022/11/06 09:05:25;;;;;;;23.08;22.17;;;13.20;95.20;;;;;;4839774;29;20041;-76
2022/11/06 09:07:50;;;;;;;21.63;20.73;;;13.30;95.10;;;;;;4856214;29;20532;-76
2022/11/06 09:10:16;;;;;;;19.98;19.17;;;13.40;95.30;;;;;;4854992;29;20116;-76
2022/11/06 09:12:42;;;;;;;18.08;17.38;;;13.50;95.30;;;;;;4855116;29;20048;-76
2022/11/06 09:15:08;;;;;;;17.55;16.85;;;13.70;95.40;;;;;;4839539;29;20034;-76
2022/11/06 09:17:44;;;;;;;17.42;16.73;;;13.90;95.20;;;;;;4839399;29;20490;-76
2022/11/06 09:20:11;;;;;;;14.18;13.57;;;13.90;95.10;;;;;;4839405;29;20506;-76
2022/11/06 09:22:37;;;;;;;12.63;12.02;;;14.20;95.50;;;;;;4839344;29;20030;-76
2022/11/06 09:25:03;;;;;;;10.50;10.00;;;14.70;95.60;;;;;;4839671;29;20128;-76
2022/11/06 09:27:29;;;;;;;7.32;6.93;;;15.10;95.50;;;;;;4839212;29;20491;-76
2022/11/06 09:29:54;;;;;;;6.50;6.10;;;15.40;95.60;;;;;;4854434;29;20066;-77
2022/11/06 09:32:21;;;;;;;7.25;6.85;;;15.80;95.80;;;;;;4854216;29;20049;-76
2022/11/06 09:34:46;;;;;;;7.30;6.90;;;16.10;95.40;;;;;;4838724;29;20033;-76
2022/11/06 09:37:12;;;;;;;7.10;6.70;;;16.00;95.00;;;;;;4854670;29;20037;-76
2022/11/06 09:39:38;;;;;;;6.07;5.78;;;16.10;95.30;;;;;;4855458;29;20042;-77
2022/11/06 09:42:25;;;;;;;4.53;4.22;;;16.20;95.40;;;;;;4854457;29;20085;-76
2022/11/06 09:45:07;;;;;;;4.07;3.78;;;16.60;95.50;;;;;;4839091;29;20045;-76
2022/11/06 09:47:38;;;;;;;3.92;3.63;;;17.00;95.60;;;;;;4838648;29;20121;-76
2022/11/06 09:50:11;;;;;;;4.95;4.65;;;17.20;95.20;;;;;;4855453;29;20028;-76
2022/11/06 09:52:43;;;;;;;3.75;3.47;;;17.20;95.20;;;;;;4855219;29;20085;-76
2022/11/06 09:55:16;;;;;;;1.63;1.52;;;17.50;95.70;;;;;;4838904;29;20475;-76
2022/11/06 09:57:54;;;;;;;0.98;0.98;;;18.00;95.90;;;;;;4839015;29;20037;-76
2022/11/06 10:00:19;;;;;;;0.95;0.95;;;18.60;95.70;;;;;;4855160;29;20355;-76
2022/11/06 10:02:51;;;;;;;;;;;18.90;95.60;;;;;;4854539;29;20044;-76
2022/11/06 10:05:35;;;;;;;0.35;0.35;;;19.40;95.60;;;;;;4855190;29;19931;-76
2022/11/06 10:08:26;;;;;;;0.22;0.22;;;19.80;95.50;;;;;;4855047;29;20101;-76
2022/11/06 10:10:58;;;;;;;0.20;0.20;;;20.10;95.30;;;;;;4854805;29;20030;-77
2022/11/06 10:13:29;;;;;;;0.10;0.10;;;20.40;95.40;;;;;;4854998;29;20565;-76
2022/11/06 10:16:09;;;;;;;0.10;0.10;;;20.60;95.20;;;;;;4855432;29;20507;-77
2022/11/06 10:18:59;;;;;;;0.10;0.10;;;20.70;95.10;;;;;;4838583;29;20037;-78
2022/11/06 10:21:35;;;;;;;0.00;0.00;;;20.70;95.10;;;;;;4854938;29;20030;-76
2022/11/06 10:24:18;;;;;;;0.43;0.40;;;20.90;95.40;;;;;;4838312;29;20040;-76
2022/11/06 10:27:10;;;;;;;0.03;0.03;;;21.00;95.20;;;;;;4838064;29;20071;-76
2022/11/06 10:30:08;;;;;;;0.10;0.10;;;20.90;95.10;;;;;;4854906;29;20033;-76
2022/11/06 10:32:49;;;;;;;0.10;0.10;;;20.90;95.10;;;;;;4853662;29;20036;-76
2022/11/06 10:35:25;;;;;;;0.10;0.10;;;21.00;95.30;;;;;;4855016;29;20026;-76
2022/11/06 10:37:59;;;;;;;0.03;0.03;;;21.20;95.40;;;;;;4837700;29;20065;-76
2022/11/06 10:40:29;;;;;;;0.00;0.00;;;21.40;95.40;;;;;;4854738;29;20034;-77
2022/11/06 10:43:20;;;;;;;0.00;0.00;;;21.60;95.50;;;;;;4854301;29;20029;-78
2022/11/06 10:45:51;;;;;;;0.00;0.00;;;21.80;95.50;;;;;;4854326;29;20076;-76
2022/11/06 10:48:22;;;;;;;0.00;0.00;;;22.10;95.50;;;;;;4854702;29;20033;-76
2022/11/06 10:51:01;;;;;;;0.00;0.00;;;22.50;95.70;;;;;;4854495;29;20021;-76
2022/11/06 10:53:39;;;;;;;0.00;0.00;;;22.90;95.70;;;;;;4854360;29;20394;-78
2022/11/06 10:56:16;;;;;;;0.00;0.00;;;23.30;95.60;;;;;;4854404;29;20029;-78
2022/11/06 10:58:41;;;;;;;0.00;0.00;;;23.40;95.30;;;;;;4854101;29;20128;-78
2022/11/06 11:01:12;;;;;;;0.00;0.00;;;23.50;95.20;;;;;;4853362;29;20560;-77
2022/11/06 11:03:44;;;;;;;0.00;0.00;;;23.50;95.20;;;;;;4854216;29;20030;-78
2022/11/06 11:06:09;;;;;;;0.00;0.00;;;23.10;94.60;;;;;;4854313;29;20029;-77
2022/11/06 11:08:44;;;;;;;0.00;0.00;;;22.50;94.40;;;;;;4853122;29;20053;-78
2022/11/06 11:11:13;;;;;;;0.00;0.00;;;21.80;94.30;;;;;;4838046;29;20036;-80
2022/11/06 11:13:41;;;;;;;0.00;0.00;;;21.10;94.40;;;;;;4853980;29;20074;-77
2022/11/06 11:16:17;;;;;;;0.00;0.00;;;20.40;94.50;;;;;;4837668;29;20026;-78
2022/11/06 11:18:44;;;;;;;0.00;0.00;;;19.80;94.70;;;;;;4854573;29;20027;-78
2022/11/06 11:21:15;;;;;;;0.00;0.00;;;19.40;95.00;;;;;;4837498;29;20060;-76
2022/11/06 11:23:41;;;;;;;0.00;0.00;;;19.40;95.70;;;;;;4855999;29;20068;-76
2022/11/06 11:26:20;;;;;;;;;;;19.50;95.60;;;;;;4858126;29;20068;-75
2022/11/06 11:28:58;;;;;;;0.00;0.00;;;19.80;96.00;;;;;;4857496;29;19912;-77
2022/11/06 11:31:33;;;;;;;0.00;0.00;;;20.40;96.10;;;;;;4840744;29;20034;-77
2022/11/06 11:34:02;;;;;;;0.00;0.00;;;20.70;95.80;;;;;;4840940;29;20509;-77
2022/11/06 11:36:52;;;;;;;0.00;0.00;;;20.70;95.70;;;;;;4857368;29;20514;-77
2022/11/06 11:39:20;;;;;;;0.00;0.00;;;20.60;95.10;;;;;;4857768;29;20487;-77
2022/11/06 11:41:46;;;;;;;0.00;0.00;;;20.30;94.90;;;;;;4857190;29;20062;-78
2022/11/06 11:44:16;;;;;;;;;;;20.20;95.40;;;;;;4841093;29;20041;-77
2022/11/06 11:46:53;;;;;;;0.00;0.00;;;20.40;95.60;;;;;;4857216;29;19908;-77
2022/11/06 11:49:31;;;;;;;;;;;20.80;95.80;;;;;;4857422;29;20033;-77
2022/11/06 11:52:02;;;;;;;0.00;0.00;;;20.80;95.00;;;;;;4840705;29;19907;-76
2022/11/06 11:54:32;;;;;;;0.00;0.00;;;20.10;94.20;;;;;;4840363;29;20034;-77
2022/11/06 11:57:06;;;;;;;0.00;0.00;;;19.30;94.00;;;;;;4840426;29;20129;-76
2022/11/06 11:59:43;;;;;;;0.00;0.00;;;19.00;95.20;;;;;;4840150;29;20064;-76
2022/11/06 12:02:19;;;;;;;1.17;0.43;;;19.10;95.70;;;;;;4857186;29;20022;-77
2022/11/06 12:04:50;;;;;;;0.00;0.00;;;19.30;95.90;;;;;;4856394;29;20123;-76
2022/11/06 12:07:31;;;;;;;0.00;0.00;;;19.70;96.00;;;;;;4839451;29;20125;-76
2022/11/06 12:09:59;;;;;;;0.00;0.00;;;20.10;95.90;;;;;;4856160;29;20029;-76
2022/11/06 12:12:35;;;;;;;0.00;0.00;;;20.30;95.70;;;;;;4839834;29;20025;-77
2022/11/06 12:15:23;;;;;;;0.00;0.00;;;20.40;95.50;;;;;;4856408;29;20026;-77
2022/11/06 12:18:03;;;;;;;0.00;0.00;;;20.30;95.30;;;;;;4839929;29;20034;-77
2022/11/06 12:20:36;;;;;;;0.00;0.00;;;20.40;95.50;;;;;;4856333;29;20098;-77
2022/11/06 12:23:03;;;;;;;0.00;0.00;;;20.20;95.00;;;;;;4838935;29;20025;-76
2022/11/06 12:25:39;;;;;;;0.00;0.00;;;19.90;94.50;;;;;;4856327;29;20081;-76
2022/11/06 12:28:12;;;;;;;0.00;0.00;;;19.50;95.00;;;;;;4839365;29;20089;-77
2022/11/06 12:30:40;;;;;;;0.00;0.00;;;19.30;94.90;;;;;;4840253;29;20469;-77
2022/11/06 12:33:17;;;;;;;0.00;0.00;;;18.90;94.80;;;;;;4839671;29;20038;-77
2022/11/06 12:36:06;;;;;;;0.00;0.00;;;18.50;94.70;;;;;;4856332;29;20025;-77
2022/11/06 12:39:08;;;;;;;0.00;0.00;;;18.10;94.80;;;;;;4840090;29;20184;-77
2022/11/06 12:41:39;;;;;;;0.05;0.03;;;18.00;94.90;;;;;;4855511;29;20473;-77
2022/11/06 12:44:10;;;;;;;0.10;0.10;;;17.80;94.70;;;;;;4839531;29;20026;-76
2022/11/06 12:46:48;;;;;;;0.00;0.00;;;17.60;94.60;;;;;;4855948;29;20108;-77
2022/11/06 12:50:00;;;;;;;0.00;0.00;;;17.40;94.60;;;;;;4855991;29;20033;-77
2022/11/06 12:53:09;;;;;;;0.00;0.00;;;17.20;94.80;;;;;;4839318;29;20386;-77
2022/11/06 12:55:45;;;;;;;0.00;0.00;;;17.00;94.80;;;;;;4831923;29;20375;-78
2022/11/06 12:58:57;;;;;;;0.00;0.00;;;17.00;94.90;;;;;;4856341;29;20504;-78
2022/11/06 13:01:52;;;;;;;0.00;0.00;;;16.90;95.10;;;;;;4838897;29;20044;-78
2022/11/06 13:04:37;;;;;;;0.00;0.00;;;17.00;95.00;;;;;;4838889;29;20491;-78
2022/11/06 13:07:30;;;;;;;0.00;0.00;;;16.80;94.80;;;;;;4855278;29;20049;-78